createdAt,value
2023-05-06T00:00:33.481Z,1080.2142
2023-05-06T00:01:41.448Z,1088.0000
2023-05-06T00:02:49.678Z,1084.2142
2023-05-06T00:03:57.838Z,1084.4286
2023-05-06T00:05:05.624Z,1084.6428
2023-05-06T00:06:13.797Z,1082.0714
2023-05-06T00:07:21.991Z,1081.2858
2023-05-06T00:08:29.857Z,1082.7858
2023-05-06T00:09:37.998Z,1084.6428
2023-05-06T00:10:45.888Z,1087.3572
2023-05-06T00:11:54.084Z,1090.1428
2023-05-06T00:13:02.222Z,1086.9286
2023-05-06T00:14:10.190Z,1087.8572
2023-05-06T00:15:18.364Z,1092.2142
2023-05-06T00:16:26.352Z,1093.3572
2023-05-06T00:17:34.400Z,1097.9286
2023-05-06T00:18:42.512Z,1099.3572
2023-05-06T00:19:50.480Z,1091.5000
2023-05-06T00:20:58.393Z,1095.9286
2023-05-06T00:22:06.497Z,1094.5000
2023-05-06T00:23:14.642Z,1097.6428
2023-05-06T00:24:22.734Z,1090.0714
2023-05-06T00:25:30.717Z,1096.4286
2023-05-06T00:26:38.703Z,1099.1428
2023-05-06T00:27:46.921Z,1099.7858
2023-05-06T00:28:54.939Z,1097.8572
2023-05-06T00:30:02.965Z,1097.0714
2023-05-06T00:31:11.240Z,1094.7142
2023-05-06T00:32:19.177Z,1088.4286
2023-05-06T00:33:27.031Z,1085.5714
2023-05-06T00:34:35.277Z,1088.0000
2023-05-06T00:35:43.272Z,1093.9286
2023-05-06T00:36:51.460Z,1096.5714
2023-05-06T00:37:59.513Z,1088.2858
2023-05-06T00:39:07.489Z,1093.6428
2023-05-06T00:40:15.513Z,1091.1428
2023-05-06T00:41:23.602Z,1090.7142
2023-05-06T00:42:31.685Z,1088.0714
2023-05-06T00:43:39.691Z,1084.5000
2023-05-06T00:44:47.609Z,1084.9286
2023-05-06T00:45:55.993Z,1081.8572
2023-05-06T00:47:03.819Z,1086.9286
2023-05-06T00:48:11.991Z,1098.0000
2023-05-06T00:49:19.834Z,1099.3572
2023-05-06T00:50:27.992Z,1095.4286
2023-05-06T00:51:36.081Z,1094.8572
2023-05-06T00:52:44.212Z,1085.8572
2023-05-06T00:53:52.276Z,1080.2142
2023-05-06T00:55:00.315Z,1080.7142
2023-05-06T00:56:08.198Z,1085.2142
2023-05-06T00:57:16.523Z,1104.6428
2023-05-06T00:58:24.506Z,1105.0000
2023-05-06T00:59:32.472Z,1096.8572
2023-05-06T01:00:40.514Z,1093.4286
2023-05-06T01:01:48.598Z,1088.6428
2023-05-06T01:02:56.907Z,1086.0000
2023-05-06T01:04:04.754Z,1087.1428
2023-05-06T01:05:12.812Z,1084.7142
2023-05-06T01:06:20.999Z,1079.2858
2023-05-06T01:07:28.883Z,1076.8572
2023-05-06T01:08:36.980Z,1073.5714
2023-05-06T01:09:44.881Z,1079.0000
2023-05-06T01:10:53.064Z,1077.7858
2023-05-06T01:12:01.131Z,1079.0000
2023-05-06T01:13:09.335Z,1073.7142
2023-05-06T01:14:17.212Z,1075.8572
2023-05-06T01:15:25.262Z,1073.5000
2023-05-06T01:16:33.384Z,1075.3572
2023-05-06T01:17:41.545Z,1071.9286
2023-05-06T01:18:49.506Z,1076.4286
2023-05-06T01:19:57.500Z,1081.1428
2023-05-06T01:21:05.562Z,1078.2858
2023-05-06T01:22:13.786Z,1078.0714
2023-05-06T01:23:21.835Z,1081.4286
2023-05-06T01:24:29.763Z,1079.6428
2023-05-06T01:25:37.754Z,1079.5000
2023-05-06T01:26:45.838Z,1080.8572
2023-05-06T01:27:53.898Z,1078.9286
2023-05-06T01:29:02.049Z,1075.2142
2023-05-06T01:30:10.010Z,1076.3572
2023-05-06T01:31:18.105Z,1078.5714
2023-05-06T01:32:26.010Z,1076.9286
2023-05-06T01:33:34.293Z,1077.8572
2023-05-06T01:34:42.393Z,1072.1428
2023-05-06T01:35:50.284Z,1070.8572
2023-05-06T01:36:58.471Z,1071.6428
2023-05-06T01:38:06.438Z,1070.0714
2023-05-06T01:39:14.520Z,1060.4286
2023-05-06T01:40:22.602Z,1060.2142
2023-05-06T01:41:30.614Z,1060.7142
2023-05-06T01:42:38.806Z,1058.2858
2023-05-06T01:43:46.719Z,1058.2142
2023-05-06T01:44:54.608Z,1053.6428
2023-05-06T01:46:02.814Z,1058.5000
2023-05-06T01:47:11.006Z,1058.5714
2023-05-06T01:48:19.015Z,1056.6428
2023-05-06T01:49:27.051Z,1057.6428
2023-05-06T01:50:34.928Z,1055.7142
2023-05-06T01:51:43.447Z,1050.2858
2023-05-06T01:52:51.104Z,1052.0000
2023-05-06T01:53:59.252Z,1050.9286
2023-05-06T01:55:07.471Z,1049.9286
2023-05-06T01:56:15.165Z,1044.5000
2023-05-06T01:57:23.371Z,1043.6428
2023-05-06T01:58:31.560Z,1047.9286
2023-05-06T01:59:39.534Z,1045.0714
2023-05-06T02:00:47.497Z,1048.3572
2023-05-06T02:01:55.775Z,1047.8572
2023-05-06T02:03:03.695Z,1046.8572
2023-05-06T02:04:11.827Z,1046.5000
2023-05-06T02:05:19.732Z,1045.4286
2023-05-06T02:06:27.788Z,1048.5000
2023-05-06T02:07:35.942Z,1052.8572
2023-05-06T02:08:43.960Z,1050.7142
2023-05-06T02:09:51.840Z,1048.5714
2023-05-06T02:11:00.429Z,1051.9286
2023-05-06T02:12:08.078Z,1056.0000
2023-05-06T02:13:16.197Z,1055.1428
2023-05-06T02:14:24.324Z,1053.8572
2023-05-06T02:15:32.182Z,1053.4286
2023-05-06T02:16:40.422Z,1053.0714
2023-05-06T02:17:48.472Z,1053.0714
2023-05-06T02:18:56.362Z,1052.5000
2023-05-06T02:20:04.549Z,1055.0000
2023-05-06T02:21:12.732Z,1054.8572
2023-05-06T02:22:20.808Z,1051.4286
2023-05-06T02:23:28.766Z,1047.7858
2023-05-06T02:24:36.734Z,1048.7858
2023-05-06T02:25:44.851Z,1047.7142
2023-05-06T02:26:52.753Z,1054.5714
2023-05-06T02:28:00.930Z,1051.7858
2023-05-06T02:29:09.021Z,1058.2142
2023-05-06T02:30:17.210Z,1060.5714
2023-05-06T02:31:25.141Z,1053.9286
2023-05-06T02:32:33.026Z,1051.9286
2023-05-06T02:33:41.301Z,1055.9286
2023-05-06T02:34:49.291Z,1062.9286
2023-05-06T02:35:57.549Z,1059.7858
2023-05-06T02:37:05.363Z,1061.0714
2023-05-06T02:38:13.431Z,1060.2142
2023-05-06T02:39:21.544Z,1060.8572
2023-05-06T02:40:29.621Z,1060.2142
2023-05-06T02:41:37.575Z,1059.5000
2023-05-06T02:42:45.656Z,1054.8572
2023-05-06T02:43:53.717Z,1058.8572
2023-05-06T02:45:01.797Z,1060.0000
2023-05-06T02:46:09.885Z,1060.7858
2023-05-06T02:47:17.856Z,1060.5714
2023-05-06T02:48:25.905Z,1057.0000
2023-05-06T02:49:33.929Z,1063.2858
2023-05-06T02:50:41.834Z,1060.1428
2023-05-06T02:51:50.194Z,1057.5000
2023-05-06T02:52:58.111Z,1060.2858
2023-05-06T02:54:06.157Z,1060.4286
2023-05-06T02:55:14.422Z,1059.0714
2023-05-06T02:56:22.123Z,1057.1428
2023-05-06T02:57:30.324Z,1055.4286
2023-05-06T02:58:38.329Z,1055.2858
2023-05-06T02:59:46.429Z,1056.2858
2023-05-06T03:00:54.639Z,1058.3572
2023-05-06T03:02:02.489Z,1054.1428
2023-05-06T03:03:10.677Z,1056.7142
2023-05-06T03:04:18.675Z,1055.7142
2023-05-06T03:05:26.698Z,1054.0714
2023-05-06T03:06:34.694Z,1047.5714
2023-05-06T03:07:42.644Z,1048.5000
2023-05-06T03:08:50.849Z,1051.1428
2023-05-06T03:09:58.754Z,1047.6428
2023-05-06T03:11:08.239Z,1045.8572
2023-05-06T03:12:14.981Z,1041.7142
2023-05-06T03:13:23.009Z,1048.6428
2023-05-06T03:14:31.101Z,1049.2142
2023-05-06T03:15:39.028Z,1052.0714
2023-05-06T03:16:47.393Z,1049.4286
2023-05-06T03:17:55.332Z,1053.7858
2023-05-06T03:19:03.216Z,1049.0714
2023-05-06T03:20:11.481Z,1052.0000
2023-05-06T03:21:19.485Z,1048.6428
2023-05-06T03:22:27.729Z,1053.7142
2023-05-06T03:23:35.617Z,1053.1428
2023-05-06T03:24:43.586Z,1051.2142
2023-05-06T03:25:51.669Z,1047.5714
2023-05-06T03:26:59.968Z,1047.7858
2023-05-06T03:28:07.808Z,1050.2142
2023-05-06T03:29:15.903Z,1046.7142
2023-05-06T03:30:23.778Z,1047.6428
2023-05-06T03:31:31.963Z,1053.1428
2023-05-06T03:32:40.011Z,1052.2142
2023-05-06T03:33:48.007Z,1047.5714
2023-05-06T03:34:56.155Z,1047.1428
2023-05-06T03:36:04.012Z,1046.4286
2023-05-06T03:37:12.307Z,1046.3572
2023-05-06T03:38:20.209Z,1041.3572
2023-05-06T03:39:28.417Z,1041.6428
2023-05-06T03:40:36.373Z,1037.6428
2023-05-06T03:41:44.314Z,1032.8572
2023-05-06T03:42:52.440Z,1036.0714
2023-05-06T03:44:00.509Z,1033.0000
2023-05-06T03:45:09.233Z,1032.0714
2023-05-06T03:46:16.700Z,1031.1428
2023-05-06T03:47:24.691Z,1030.2858
2023-05-06T03:48:32.774Z,1028.9286
2023-05-06T03:49:41.068Z,1028.3572
2023-05-06T03:50:48.805Z,1027.0714
2023-05-06T03:51:56.929Z,1030.3572
2023-05-06T03:53:04.855Z,1025.9286
2023-05-06T03:54:13.012Z,1030.4286
2023-05-06T03:55:21.087Z,1025.5714
2023-05-06T03:56:29.059Z,1015.8571
2023-05-06T03:57:37.178Z,1018.1429
2023-05-06T03:58:45.250Z,1021.8571
2023-05-06T03:59:53.458Z,1020.0000
2023-05-06T04:01:01.380Z,1023.4286
2023-05-06T04:02:09.480Z,1023.3571
2023-05-06T04:03:17.724Z,1025.3572
2023-05-06T04:04:25.372Z,1032.8572
2023-05-06T04:05:33.655Z,1031.3572
2023-05-06T04:06:41.692Z,1039.0714
2023-05-06T04:07:49.677Z,1045.8572
2023-05-06T04:08:57.682Z,1041.0714
2023-05-06T04:10:05.737Z,1046.7142
2023-05-06T04:11:13.837Z,1047.8572
2023-05-06T04:12:21.916Z,1050.8572
2023-05-06T04:13:30.000Z,1055.6428
2023-05-06T04:14:38.088Z,1054.0000
2023-05-06T04:15:46.099Z,1062.0714
2023-05-06T04:16:54.241Z,1061.5714
2023-05-06T04:18:02.213Z,1052.0000
2023-05-06T04:19:10.337Z,1059.0000
2023-05-06T04:20:18.302Z,1066.2142
2023-05-06T04:21:26.250Z,1071.5000
2023-05-06T04:22:34.388Z,1065.7142
2023-05-06T04:23:42.410Z,1063.4286
2023-05-06T04:24:50.510Z,1077.8572
2023-05-06T04:25:58.541Z,1080.0714
2023-05-06T04:27:06.582Z,1078.0000
2023-05-06T04:28:14.650Z,1072.3572
2023-05-06T04:29:22.702Z,1076.8572
2023-05-06T04:30:30.770Z,1069.5714
2023-05-06T04:31:38.923Z,1067.3572
2023-05-06T04:32:46.930Z,1067.7858
2023-05-06T04:33:54.849Z,1069.7858
2023-05-06T04:35:02.997Z,1064.5714
2023-05-06T04:36:11.022Z,1061.1428
2023-05-06T04:37:19.154Z,1059.0000
2023-05-06T04:38:27.214Z,1056.3572
2023-05-06T04:39:35.188Z,1057.3572
2023-05-06T04:40:43.308Z,1056.2858
2023-05-06T04:41:51.324Z,1058.2858
2023-05-06T04:42:59.396Z,1061.4286
2023-05-06T04:44:07.429Z,1055.3572
2023-05-06T04:45:15.483Z,1053.4286
2023-05-06T04:46:23.670Z,1053.4286
2023-05-06T04:47:31.700Z,1055.6428
2023-05-06T04:48:39.681Z,1057.2142
2023-05-06T04:49:47.647Z,1057.0714
2023-05-06T04:50:55.688Z,1057.8572
2023-05-06T04:52:03.777Z,1057.7858
2023-05-06T04:53:11.802Z,1067.9286
2023-05-06T04:54:19.881Z,1074.5714
2023-05-06T04:55:27.932Z,1084.2858
2023-05-06T04:56:36.138Z,1089.7858
2023-05-06T04:57:44.103Z,1089.6428
2023-05-06T04:58:52.027Z,1084.4286
2023-05-06T05:00:00.223Z,1084.2858
2023-05-06T05:01:08.277Z,1082.6428
2023-05-06T05:02:16.322Z,1074.0714
2023-05-06T05:03:24.522Z,1073.8572
2023-05-06T05:04:32.309Z,1076.9286
2023-05-06T05:05:40.470Z,1075.5714
2023-05-06T05:06:48.473Z,1091.7142
2023-05-06T05:07:56.617Z,1094.4286
2023-05-06T05:09:04.760Z,1091.5714
2023-05-06T05:10:12.658Z,1088.2858
2023-05-06T05:11:20.638Z,1099.2858
2023-05-06T05:12:28.809Z,1101.5714
2023-05-06T05:13:36.912Z,1102.4286
2023-05-06T05:14:44.967Z,1096.5714
2023-05-06T05:15:52.982Z,1089.7858
2023-05-06T05:17:01.039Z,1082.9286
2023-05-06T05:18:09.224Z,1079.7142
2023-05-06T05:19:17.156Z,1075.7858
2023-05-06T05:20:25.190Z,1072.7142
2023-05-06T05:21:33.248Z,1067.3572
2023-05-06T05:22:41.368Z,1066.6428
2023-05-06T05:23:49.412Z,1063.0714
2023-05-06T05:24:57.362Z,1063.1428
2023-05-06T05:26:05.440Z,1064.8572
2023-05-06T05:27:13.483Z,1066.1428
2023-05-06T05:28:21.594Z,1066.1428
2023-05-06T05:29:29.592Z,1077.5000
2023-05-06T05:30:37.613Z,1089.3572
2023-05-06T05:31:45.791Z,1104.6428
2023-05-06T05:32:53.971Z,1105.4286
2023-05-06T05:34:01.961Z,1101.0000
2023-05-06T05:35:10.187Z,1096.8572
2023-05-06T05:36:17.874Z,1091.0000
2023-05-06T05:37:26.020Z,1092.2858
2023-05-06T05:38:34.111Z,1088.5000
2023-05-06T05:39:42.156Z,1084.6428
2023-05-06T05:40:50.271Z,1085.9286
2023-05-06T05:41:58.224Z,1091.2858
2023-05-06T05:43:06.300Z,1089.0714
2023-05-06T05:44:14.363Z,1090.6428
2023-05-06T05:45:22.431Z,1089.0714
2023-05-06T05:46:30.460Z,1086.5000
2023-05-06T05:47:38.461Z,1086.1428
2023-05-06T05:48:46.525Z,1078.7858
2023-05-06T05:49:54.645Z,1084.2858
2023-05-06T05:51:02.648Z,1089.1428
2023-05-06T05:52:10.748Z,1095.2142
2023-05-06T05:53:18.719Z,1102.0000
2023-05-06T05:54:26.840Z,1107.5714
2023-05-06T05:55:34.879Z,1119.6428
2023-05-06T05:56:42.959Z,1121.0000
2023-05-06T05:57:51.056Z,1135.0000
2023-05-06T05:58:59.076Z,1122.2142
2023-05-06T06:00:07.095Z,1120.2142
2023-05-06T06:01:15.237Z,1109.7858
2023-05-06T06:02:23.375Z,1109.9286
2023-05-06T06:03:31.440Z,1108.0714
2023-05-06T06:04:39.574Z,1117.3572
2023-05-06T06:05:47.414Z,1126.0714
2023-05-06T06:06:55.502Z,1118.5000
2023-05-06T06:08:03.981Z,1113.5000
2023-05-06T06:09:11.579Z,1116.8572
2023-05-06T06:10:19.588Z,1112.9286
2023-05-06T06:11:27.703Z,1110.5000
2023-05-06T06:12:35.913Z,1120.8572
2023-05-06T06:13:43.770Z,1124.5714
2023-05-06T06:14:51.901Z,1121.7142
2023-05-06T06:15:59.900Z,1124.5714
2023-05-06T06:17:07.962Z,1128.8572
2023-05-06T06:18:16.079Z,1122.7858
2023-05-06T06:19:24.108Z,1134.6428
2023-05-06T06:20:32.133Z,1140.5714
2023-05-06T06:21:40.172Z,1140.2142
2023-05-06T06:22:48.518Z,1137.1428
2023-05-06T06:23:56.449Z,1137.9286
2023-05-06T06:25:04.398Z,1151.4286
2023-05-06T06:26:12.568Z,1153.4286
2023-05-06T06:27:20.545Z,1155.8572
2023-05-06T06:28:28.629Z,1152.5714
2023-05-06T06:29:36.761Z,1148.2142
2023-05-06T06:30:44.610Z,1145.6428
2023-05-06T06:31:52.953Z,1147.7858
2023-05-06T06:33:00.897Z,1148.7858
2023-05-06T06:34:08.930Z,1141.7858
2023-05-06T06:35:16.912Z,1149.3572
2023-05-06T06:36:24.944Z,1150.4286
2023-05-06T06:37:33.045Z,1149.0714
2023-05-06T06:38:41.058Z,1148.0714
2023-05-06T06:39:49.223Z,1149.2858
2023-05-06T06:40:57.320Z,1154.0714
2023-05-06T06:42:05.305Z,1154.7142
2023-05-06T06:43:13.220Z,1150.3572
2023-05-06T06:44:21.379Z,1160.1428
2023-05-06T06:45:29.413Z,1155.4286
2023-05-06T06:46:37.439Z,1150.0000
2023-05-06T06:47:45.545Z,1153.2142
2023-05-06T06:48:53.470Z,1173.8572
2023-05-06T06:50:01.672Z,1183.3572
2023-05-06T06:51:09.577Z,1184.1428
2023-05-06T06:52:17.744Z,1183.0714
2023-05-06T06:53:25.802Z,1185.4286
2023-05-06T06:54:33.885Z,1186.2142
2023-05-06T06:55:41.914Z,1196.2858
2023-05-06T06:56:49.963Z,1193.4286
2023-05-06T06:57:58.063Z,1203.2858
2023-05-06T06:59:06.145Z,1209.2858
2023-05-06T07:00:14.358Z,1210.5000
2023-05-06T07:01:22.242Z,1206.7858
2023-05-06T07:02:30.195Z,1201.4286
2023-05-06T07:03:38.328Z,1196.3572
2023-05-06T07:04:46.426Z,1192.9286
2023-05-06T07:05:54.395Z,1190.5000
2023-05-06T07:07:02.460Z,1194.4286
2023-05-06T07:08:10.608Z,1197.7858
2023-05-06T07:09:18.660Z,1198.7142
2023-05-06T07:10:26.874Z,1204.6428
2023-05-06T07:11:34.605Z,1199.5000
2023-05-06T07:12:42.773Z,1199.3572
2023-05-06T07:13:50.841Z,1197.7142
2023-05-06T07:14:58.852Z,1189.7858
2023-05-06T07:16:07.017Z,1189.7858
2023-05-06T07:17:14.983Z,1183.7858
2023-05-06T07:18:23.145Z,1177.8572
2023-05-06T07:19:31.156Z,1170.9286
2023-05-06T07:20:39.356Z,1169.0714
2023-05-06T07:21:47.257Z,1172.8572
2023-05-06T07:22:55.452Z,1181.5000
2023-05-06T07:24:03.341Z,1182.6428
2023-05-06T07:25:11.735Z,1179.0000
2023-05-06T07:26:19.439Z,1179.0714
2023-05-06T07:27:27.514Z,1181.8572
2023-05-06T07:28:35.511Z,1176.7858
2023-05-06T07:29:43.778Z,1171.2142
2023-05-06T07:30:51.689Z,1173.9286
2023-05-06T07:31:59.846Z,1169.2142
2023-05-06T07:33:07.945Z,1174.5714
2023-05-06T07:34:15.865Z,1167.7858
2023-05-06T07:35:24.028Z,1178.9286
2023-05-06T07:36:32.094Z,1198.2142
2023-05-06T07:37:40.172Z,1194.9286
2023-05-06T07:38:48.178Z,1192.2858
2023-05-06T07:39:56.169Z,1186.5000
2023-05-06T07:41:04.170Z,1181.2858
2023-05-06T07:42:12.264Z,1174.7142
2023-05-06T07:43:20.398Z,1163.4286
2023-05-06T07:44:28.428Z,1156.6428
2023-05-06T07:45:36.396Z,1153.5000
2023-05-06T07:46:44.635Z,1153.8572
2023-05-06T07:47:52.848Z,1146.9286
2023-05-06T07:49:00.804Z,1139.9286
2023-05-06T07:50:08.775Z,1136.3572
2023-05-06T07:51:16.771Z,1130.3572
2023-05-06T07:52:24.750Z,1128.5714
2023-05-06T07:53:32.842Z,1124.5714
2023-05-06T07:54:40.841Z,1119.2858
2023-05-06T07:55:49.010Z,1114.5000
2023-05-06T07:56:57.028Z,1118.0714
2023-05-06T07:58:05.066Z,1124.7858
2023-05-06T07:59:13.251Z,1129.0714
2023-05-06T08:00:21.121Z,1132.8572
2023-05-06T08:01:29.357Z,1138.2858
2023-05-06T08:02:37.353Z,1135.2858
2023-05-06T08:03:45.474Z,1134.5714
2023-05-06T08:04:53.622Z,1137.6428
2023-05-06T08:06:01.540Z,1135.2142
2023-05-06T08:07:09.602Z,1135.7858
2023-05-06T08:08:17.682Z,1123.9286
2023-05-06T08:09:25.630Z,1125.0714
2023-05-06T08:10:33.676Z,1125.5000
2023-05-06T08:11:41.714Z,1118.5714
2023-05-06T08:12:49.811Z,1115.5000
2023-05-06T08:13:57.863Z,1118.7858
2023-05-06T08:15:06.021Z,1120.7858
2023-05-06T08:16:14.052Z,1124.0000
2023-05-06T08:17:22.106Z,1127.2142
2023-05-06T08:18:30.439Z,1141.1428
2023-05-06T08:19:38.197Z,1161.5714
2023-05-06T08:20:46.201Z,1173.0714
2023-05-06T08:21:54.320Z,1178.6428
2023-05-06T08:23:02.326Z,1206.3572
2023-05-06T08:24:10.403Z,1234.2858
2023-05-06T08:25:18.482Z,1264.2858
2023-05-06T08:26:26.558Z,1277.1428
2023-05-06T08:27:34.614Z,1274.6428
2023-05-06T08:28:42.642Z,1281.7858
2023-05-06T08:29:50.767Z,1269.2858
2023-05-06T08:30:58.812Z,1263.0714
2023-05-06T08:32:06.974Z,1262.2858
2023-05-06T08:33:14.905Z,1277.9286
2023-05-06T08:34:23.058Z,1283.2858
2023-05-06T08:35:31.031Z,1291.2858
2023-05-06T08:36:39.138Z,1284.7858
2023-05-06T08:37:47.097Z,1282.1428
2023-05-06T08:38:55.139Z,1284.4286
2023-05-06T08:40:03.241Z,1281.2142
2023-05-06T08:41:11.297Z,1276.0000
2023-05-06T08:42:19.307Z,1270.8572
2023-05-06T08:43:27.349Z,1267.5714
2023-05-06T08:44:35.452Z,1249.5000
2023-05-06T08:45:43.528Z,1237.2142
2023-05-06T08:46:51.588Z,1235.2142
2023-05-06T08:47:59.732Z,1233.5000
2023-05-06T08:49:07.759Z,1241.6428
2023-05-06T08:50:15.682Z,1256.6428
2023-05-06T08:51:26.007Z,1256.1428
2023-05-06T08:52:31.826Z,1249.0714
2023-05-06T08:53:39.855Z,1254.3572
2023-05-06T08:54:47.927Z,1246.9286
2023-05-06T08:55:55.934Z,1233.0000
2023-05-06T08:57:04.024Z,1218.0714
2023-05-06T08:58:12.248Z,1230.3572
2023-05-06T08:59:20.142Z,1254.0000
2023-05-06T09:00:28.205Z,1253.5714
2023-05-06T09:01:36.363Z,1251.6428
2023-05-06T09:02:44.468Z,1256.3572
2023-05-06T09:03:52.490Z,1244.0000
2023-05-06T09:05:00.429Z,1226.5000
2023-05-06T09:06:08.538Z,1217.9286
2023-05-06T09:07:16.567Z,1202.6428
2023-05-06T09:08:24.689Z,1193.2858
2023-05-06T09:09:32.623Z,1206.3572
2023-05-06T09:10:40.704Z,1214.2858
2023-05-06T09:11:48.730Z,1229.2858
2023-05-06T09:12:56.909Z,1222.2858
2023-05-06T09:14:04.886Z,1224.2142
2023-05-06T09:15:13.185Z,1209.3572
2023-05-06T09:16:21.066Z,1195.6428
2023-05-06T09:17:29.084Z,1200.8572
2023-05-06T09:18:37.184Z,1222.7142
2023-05-06T09:19:45.160Z,1241.0714
2023-05-06T09:20:53.252Z,1248.4286
2023-05-06T09:22:01.402Z,1231.5000
2023-05-06T09:23:09.408Z,1222.8572
2023-05-06T09:24:17.390Z,1228.5714
2023-05-06T09:25:25.465Z,1223.4286
2023-05-06T09:26:33.523Z,1237.9286
2023-05-06T09:27:41.706Z,1243.1428
2023-05-06T09:28:49.764Z,1242.4286
2023-05-06T09:29:57.676Z,1249.7142
2023-05-06T09:31:05.718Z,1244.3572
2023-05-06T09:32:13.804Z,1265.7858
2023-05-06T09:33:21.838Z,1270.6428
2023-05-06T09:34:29.869Z,1263.7142
2023-05-06T09:35:37.964Z,1266.0714
2023-05-06T09:36:46.160Z,1277.8572
2023-05-06T09:37:54.069Z,1278.1428
2023-05-06T09:39:02.151Z,1280.1428
2023-05-06T09:40:10.174Z,1290.2142
2023-05-06T09:41:18.136Z,1295.5714
2023-05-06T09:42:26.329Z,1317.5000
2023-05-06T09:43:34.303Z,1317.2858
2023-05-06T09:44:42.358Z,1329.2142
2023-05-06T09:45:50.434Z,1338.0714
2023-05-06T09:46:58.541Z,1352.2858
2023-05-06T09:48:06.621Z,1360.1428
2023-05-06T09:49:14.587Z,1364.5714
2023-05-06T09:50:22.634Z,1368.0714
2023-05-06T09:51:30.728Z,1372.2858
2023-05-06T09:52:38.690Z,1363.3572
2023-05-06T09:53:46.746Z,1353.5000
2023-05-06T09:54:54.957Z,1356.7142
2023-05-06T09:56:02.915Z,1349.0714
2023-05-06T09:57:11.016Z,1364.7858
2023-05-06T09:58:19.204Z,1369.5714
2023-05-06T09:59:27.101Z,1371.1428
2023-05-06T10:00:35.148Z,1383.0714
2023-05-06T10:01:43.280Z,1371.0714
2023-05-06T10:02:51.447Z,1386.0714
2023-05-06T10:03:59.447Z,1394.9286
2023-05-06T10:05:07.625Z,1407.8572
2023-05-06T10:06:15.513Z,1429.0000
2023-05-06T10:07:23.525Z,1463.9286
2023-05-06T10:08:31.661Z,1522.0000
2023-05-06T10:09:39.607Z,1607.5000
2023-05-06T10:10:47.906Z,1794.2858
2023-05-06T10:11:55.739Z,1940.7858
2023-05-06T10:13:03.849Z,2047.6428
2023-05-06T10:14:12.058Z,2181.6428
2023-05-06T10:15:19.909Z,2333.5715
2023-05-06T10:16:28.015Z,2460.8572
2023-05-06T10:17:36.318Z,2557.1428
2023-05-06T10:18:44.031Z,2570.3572
2023-05-06T10:19:52.198Z,2639.7144
2023-05-06T10:21:00.206Z,2669.2144
2023-05-06T10:22:08.197Z,2724.0000
2023-05-06T10:23:16.410Z,2768.4285
2023-05-06T10:24:24.395Z,2899.7856
2023-05-06T10:25:32.555Z,2966.2856
2023-05-06T10:26:40.564Z,2988.6428
2023-05-06T10:27:48.802Z,3027.9285
2023-05-06T10:28:56.660Z,3072.2856
2023-05-06T10:30:04.632Z,3136.8572
2023-05-06T10:31:12.782Z,3200.9285
2023-05-06T10:32:20.982Z,3221.0715
2023-05-06T10:33:29.016Z,3234.1428
2023-05-06T10:34:37.058Z,3205.4285
2023-05-06T10:35:45.081Z,3141.5715
2023-05-06T10:36:53.085Z,3161.2144
2023-05-06T10:38:01.304Z,3189.7144
2023-05-06T10:39:09.284Z,3089.8572
2023-05-06T10:40:17.342Z,3024.5000
2023-05-06T10:41:25.450Z,3051.7856
2023-05-06T10:42:33.492Z,3068.3572
2023-05-06T10:43:41.603Z,3127.0000
2023-05-06T10:44:49.528Z,3162.0000
2023-05-06T10:45:57.722Z,3158.6428
2023-05-06T10:47:05.737Z,3051.8572
2023-05-06T10:48:13.786Z,2888.8572
2023-05-06T10:49:21.933Z,2725.7144
2023-05-06T10:50:29.924Z,2587.7144
2023-05-06T10:51:38.009Z,2524.3572
2023-05-06T10:52:46.113Z,2545.5715
2023-05-06T10:53:54.098Z,2692.5715
2023-05-06T10:55:02.261Z,2796.7144
2023-05-06T10:56:10.151Z,2856.0715
2023-05-06T10:57:18.260Z,2853.5715
2023-05-06T10:58:26.463Z,2949.7144
2023-05-06T10:59:34.478Z,2938.4285
2023-05-06T11:00:42.537Z,2879.4285
2023-05-06T11:01:50.494Z,2748.7144
2023-05-06T11:02:58.774Z,2451.0715
2023-05-06T11:04:06.867Z,2168.7144
2023-05-06T11:05:14.787Z,2012.7142
2023-05-06T11:06:22.855Z,1888.0714
2023-05-06T11:07:30.849Z,1808.5000
2023-05-06T11:08:38.911Z,1682.1428
2023-05-06T11:09:46.994Z,1597.2142
2023-05-06T11:10:55.058Z,1581.6428
2023-05-06T11:12:03.125Z,1563.6428
2023-05-06T11:13:11.159Z,1528.5000
2023-05-06T11:14:19.443Z,1521.3572
2023-05-06T11:15:27.297Z,1518.5000
2023-05-06T11:16:37.000Z,1507.2142
2023-05-06T11:17:48.333Z,1504.2667
2023-05-06T11:18:56.458Z,1509.0714
2023-05-06T11:20:04.394Z,1509.0714
2023-05-06T11:21:12.495Z,1523.8572
2023-05-06T11:22:20.444Z,1520.3572
2023-05-06T11:23:28.759Z,1528.6428
2023-05-06T11:24:36.651Z,1544.2858
2023-05-06T11:25:44.740Z,1563.5714
2023-05-06T11:26:52.844Z,1591.1428
2023-05-06T11:28:00.889Z,1573.5714
2023-05-06T11:29:09.011Z,1539.6428
2023-05-06T11:30:17.286Z,1525.9286
2023-05-06T11:31:25.225Z,1520.5000
2023-05-06T11:32:33.190Z,1517.3572
2023-05-06T11:33:41.125Z,1512.8572
2023-05-06T11:34:49.132Z,1501.8572
2023-05-06T11:35:57.280Z,1484.5000
2023-05-06T11:37:05.366Z,1481.2142
2023-05-06T11:38:13.514Z,1474.5000
2023-05-06T11:39:21.481Z,1469.7858
2023-05-06T11:40:29.440Z,1458.7142
2023-05-06T11:41:37.831Z,1440.8572
2023-05-06T11:42:45.667Z,1448.4286
2023-05-06T11:43:53.770Z,1458.7142
2023-05-06T11:45:01.824Z,1468.6428
2023-05-06T11:46:09.936Z,1480.2142
2023-05-06T11:47:17.908Z,1480.5714
2023-05-06T11:48:25.987Z,1488.5714
2023-05-06T11:49:35.537Z,1487.5000
2023-05-06T11:50:42.106Z,1482.4286
2023-05-06T11:51:50.152Z,1486.0000
2023-05-06T11:52:58.190Z,1490.1428
2023-05-06T11:54:06.218Z,1495.5000
2023-05-06T11:55:14.349Z,1510.8572
2023-05-06T11:56:22.470Z,1518.1428
2023-05-06T11:57:30.415Z,1506.3572
2023-05-06T11:58:38.568Z,1482.5000
2023-05-06T11:59:46.485Z,1471.2858
2023-05-06T12:00:54.564Z,1459.8572
2023-05-06T12:02:02.758Z,1454.2142
2023-05-06T12:03:10.784Z,1427.9286
2023-05-06T12:04:18.904Z,1402.8572
2023-05-06T12:05:26.841Z,1389.0714
2023-05-06T12:06:34.895Z,1398.0714
2023-05-06T12:07:42.988Z,1400.0714
2023-05-06T12:08:51.058Z,1444.7142
2023-05-06T12:09:59.255Z,1512.0000
2023-05-06T12:11:07.097Z,1609.0000
2023-05-06T12:12:15.288Z,1800.2858
2023-05-06T12:13:23.476Z,1981.1428
2023-05-06T12:14:31.347Z,2154.0000
2023-05-06T12:15:39.420Z,2309.3572
2023-05-06T12:16:47.564Z,2403.8572
2023-05-06T12:17:55.854Z,2559.6428
2023-05-06T12:19:03.852Z,2719.0000
2023-05-06T12:20:11.946Z,2814.6428
2023-05-06T12:21:19.834Z,2966.5000
2023-05-06T12:22:27.874Z,3036.2856
2023-05-06T12:23:35.895Z,3100.7856
2023-05-06T12:24:43.996Z,3238.2144
2023-05-06T12:25:51.985Z,3316.5000
2023-05-06T12:27:00.176Z,3333.7856
2023-05-06T12:28:08.198Z,3433.9285
2023-05-06T12:29:16.435Z,3491.1428
2023-05-06T12:30:24.330Z,3583.1428
2023-05-06T12:31:32.369Z,3666.8572
2023-05-06T12:32:40.476Z,3710.5715
2023-05-06T12:33:48.600Z,3743.5000
2023-05-06T12:34:56.734Z,3825.3572
2023-05-06T12:36:04.681Z,3777.8572
2023-05-06T12:37:12.698Z,3770.1428
2023-05-06T12:38:20.919Z,3785.0000
2023-05-06T12:39:28.992Z,3839.6428
2023-05-06T12:40:36.965Z,3696.7144
2023-05-06T12:41:45.036Z,3484.2856
2023-05-06T12:42:53.129Z,3307.6428
2023-05-06T12:44:01.221Z,3126.2856
2023-05-06T12:45:09.305Z,3022.2856
2023-05-06T12:46:17.515Z,3027.2856
2023-05-06T12:47:25.567Z,3082.3572
2023-05-06T12:48:33.426Z,3077.4285
2023-05-06T12:49:41.559Z,2990.5715
2023-05-06T12:50:49.635Z,2959.5000
2023-05-06T12:51:57.702Z,2927.0715
2023-05-06T12:53:05.744Z,2821.2144
2023-05-06T12:54:13.780Z,2631.1428
2023-05-06T12:55:21.941Z,2496.2144
2023-05-06T12:56:30.083Z,2360.5000